Montgomery, WV (25136)

3:51 AM EST on November 23, 2014 (GMT -0500)
KWVGLENF2 | Change Station
CLOSE
Current Station
Personal Weather Station
Location: Glen Ferris, WV
Elevation: 676 ft
Nearby Weather Stations
Active Advisory: Wind Advisory

Elev 676 ft 38.15 °N, 81.22 °W | Updated 18 minutes ago

Mostly Cloudy
Mostly Cloudy
36.4 °F
Feels Like 36 °F
N
0.0
Wind Variable Wind from NW
Gusts 1.0 mph

Today
High -- | Low -- °F
--% Chance of Precip.
Yesterday
High -- | Low -- °F
Precip. -- in
7:14 AM 5:08 PM
New Moon, 1% visible
Pressure 30.13 in
Visibility 10.0 miles
Clouds Mostly Cloudy 9000 ft
Windchill 36 °F
Dew Point 30 °F
Humidity 76%
Rainfall 0.00 in
Snow Depth Not available.
UV 0 out of 12
Pollen .10 out of 12
Air Quality Not available.
Flu Activity Not available.
METAR KCRW 230754Z 00000KT 10SM BKN090 04/M02 A3012 RMK AO2 SLP201 T00391022

More Conditions Fewer Conditions

Pressure 30.13 in
Visibility 10.0 miles
Clouds Mostly Cloudy 9000 ft
Windchill 36 °F
Dew Point 30 °F
Humidity 76%
Rainfall 0.00 in
Snow Depth Not available.
UV 0 out of 12
Pollen .10 out of 12
Air Quality Not available.
Flu Activity Not available.
METAR KCRW 230754Z 00000KT 10SM BKN090 04/M02 A3012 RMK AO2 SLP201 T00391022

More Conditions Fewer Conditions

10-Day Weather Forecast

Almanac

Astronomy

Nov. 23, 2014 Rise Set
Actual Time
Civil Twilight
Nautical Twilight
Astronomical Twilight
Moon
Length of Visible Light
Length of Day
Tomorrow will be .
, % of the Moon is Illuminated

Today's Extremes

State Highs State Lows

Community

WunderPhotos

Upload Photos

1,773,024 photos uploaded!

WunderBlogs® & News

Nearby

Air Quality

  Air Quality AQ Index Pollutant
Not available.

Snow Depth

Station Depth Elevation

Earthquake Activity

City Distance Mag. Time & Date
Minimum magnitude displayed is 2.5.

Coastal Water Temperatures

Place Temperature

Nearby Weather Stations